Time;durP1;ratioP1;P1;durP2;ratioP2;P2;SDS_P1;SDS_P2;PMS_P1;PMS_P2;Temp;Humidity;BMP_temperature;BMP_pressure;BME280_temperature;BME280_humidity;BME280_pressure;Samples;Min_cycle;Max_cycle;Signal;HPM_P1;HPM_P2
2023/05/09 00:01:34;;;;;;;51.22;28.10;;;;;;;21.64;60.61;98374.38;4765149;29;20068;-70
2023/05/09 00:04:04;;;;;;;46.92;28.13;;;;;;;21.65;60.43;98369.81;4763521;29;20090;-71
2023/05/09 00:06:34;;;;;;;46.80;28.77;;;;;;;21.63;60.53;98370.09;4747540;30;20084;-68
2023/05/09 00:09:04;;;;;;;50.38;29.45;;;;;;;21.64;60.27;98376.28;4760266;29;20044;-68
2023/05/09 00:11:33;;;;;;;45.70;28.80;;;;;;;21.62;60.81;98378.44;4760538;29;20062;-70
2023/05/09 00:14:02;;;;;;;44.15;27.70;;;;;;;21.61;61.27;98379.50;4763362;29;20066;-71
2023/05/09 00:16:32;;;;;;;50.15;28.67;;;;;;;21.60;61.35;98377.91;4759927;29;20068;-66
2023/05/09 00:19:02;;;;;;;55.55;30.23;;;;;;;21.60;61.07;98377.91;4764437;29;20142;-67
2023/05/09 00:21:32;;;;;;;51.83;28.95;;;;;;;21.61;61.32;98376.81;4756698;29;20063;-68
2023/05/09 00:24:02;;;;;;;51.33;29.10;;;;;;;21.61;61.44;98379.50;4764403;29;20159;-69
2023/05/09 00:26:32;;;;;;;51.42;30.02;;;;;;;21.63;61.47;98390.84;4764522;29;20381;-71
2023/05/09 00:29:01;;;;;;;50.40;29.15;;;;;;;21.62;61.72;98390.03;4764051;29;20482;-68
2023/05/09 00:31:30;;;;;;;42.83;28.92;;;;;;;21.62;61.86;98387.34;4757011;30;20215;-68
2023/05/09 00:34:00;;;;;;;46.45;28.58;;;;;;;21.66;61.72;98393.00;4763414;30;20062;-68
2023/05/09 00:36:29;;;;;;;51.75;29.88;;;;;;;21.69;61.63;98390.56;4762904;30;20052;-68
2023/05/09 00:38:58;;;;;;;53.95;30.02;;;;;;;21.70;61.83;98392.19;4763427;30;20056;-68
2023/05/09 00:41:27;;;;;;;47.22;29.45;;;;;;;21.73;62.39;98402.41;4763910;29;20052;-68
2023/05/09 00:43:57;;;;;;;48.92;29.73;;;;;;;21.75;62.60;98399.44;4763172;30;20129;-68
2023/05/09 00:46:27;;;;;;;43.30;28.90;;;;;;;21.77;62.54;98389.22;4763352;30;20072;-67
2023/05/09 00:48:56;;;;;;;44.05;28.80;;;;;;;21.80;62.15;98388.66;4762963;30;20056;-68
2023/05/09 00:51:27;;;;;;;50.50;30.38;;;;;;;21.82;62.39;98395.38;4763046;29;20056;-68
2023/05/09 00:53:57;;;;;;;42.88;28.60;;;;;;;21.88;62.40;98394.31;4763278;30;20672;-67
2023/05/09 00:56:26;;;;;;;50.90;31.08;;;;;;;21.92;62.54;98405.34;4763021;30;20140;-68
2023/05/09 00:58:56;;;;;;;50.95;32.10;;;;;;;21.98;62.66;98411.56;4762738;30;20147;-67
2023/05/09 01:01:25;;;;;;;58.80;34.15;;;;;;;22.02;62.69;98420.72;4760167;30;20549;-69
2023/05/09 01:03:55;;;;;;;56.92;36.78;;;;;;;22.04;62.74;98416.66;4762075;30;20063;-67
2023/05/09 01:06:30;;;;;;;66.32;38.33;;;;;;;22.11;62.39;98421.78;4748203;29;20532;-69
2023/05/09 01:09:18;;;;;;;73.53;42.50;;;;;;;22.16;62.26;98424.47;4762991;30;20113;-69
2023/05/09 01:12:06;;;;;;;72.80;44.00;;;;;;;22.20;61.79;98429.06;4762211;30;20140;-68
2023/05/09 01:15:07;;;;;;;79.60;46.17;;;;;;;22.25;61.77;98434.44;4762530;30;20062;-70
2023/05/09 01:18:13;;;;;;;85.13;51.08;;;;;;;22.32;61.78;98442.22;4762548;30;20067;-68
2023/05/09 01:20:56;;;;;;;83.28;53.63;;;;;;;22.38;61.98;98446.53;4751445;30;20066;-68
2023/05/09 01:23:45;;;;;;;91.88;59.45;;;;;;;22.45;61.99;98447.03;4761755;29;20134;-68
2023/05/09 01:26:29;;;;;;;95.28;61.13;;;;;;;22.53;61.98;98451.06;4762602;29;20740;-70
2023/05/09 01:29:17;;;;;;;103.55;67.10;;;;;;;22.60;61.81;98448.88;4762985;30;20071;-69
2023/05/09 01:31:48;;;;;;;105.78;67.60;;;;;;;22.66;61.40;98453.19;4761947;30;20079;-67
2023/05/09 01:34:21;;;;;;;118.60;69.72;;;;;;;22.71;60.92;98445.88;4762234;29;20648;-69
2023/05/09 01:36:55;;;;;;;118.40;70.97;;;;;;;22.77;60.63;98455.59;4763786;29;20460;-67
2023/05/09 01:39:26;;;;;;;109.60;69.40;;;;;;;22.84;61.02;98463.38;4761675;29;20130;-68
2023/05/09 01:42:00;;;;;;;111.68;68.85;;;;;;;22.92;61.21;98476.31;4762254;30;20055;-69
2023/05/09 01:44:38;;;;;;;106.25;67.95;;;;;;;23.00;60.62;98472.22;4761738;30;20058;-69
2023/05/09 01:47:08;;;;;;;102.60;66.07;;;;;;;23.16;60.28;98477.25;4762005;29;20063;-67
2023/05/09 01:49:40;;;;;;;105.53;66.18;;;;;;;23.53;59.85;98474.06;4762424;30;20052;-69
2023/05/09 01:52:14;;;;;;;103.88;63.97;;;;;;;24.23;57.59;98471.03;4761080;29;20389;-69
2023/05/09 01:54:45;;;;;;;109.05;64.88;;;;;;;25.01;55.43;98472.28;4761973;30;20585;-68
2023/05/09 01:57:16;;;;;;;100.20;63.90;;;;;;;25.49;53.29;98483.00;4755799;30;20267;-69
2023/05/09 01:59:48;;;;;;;88.95;56.20;;;;;;;26.03;50.94;98482.41;4761938;30;20123;-70
2023/05/09 02:02:18;;;;;;;88.25;51.65;;;;;;;26.50;49.39;98483.22;4762167;29;20071;-72
2023/05/09 02:04:49;;;;;;;86.30;49.97;;;;;;;26.96;48.51;98485.81;4747590;30;20063;-71
2023/05/09 02:07:19;;;;;;;80.07;45.05;;;;;;;27.36;46.49;98493.09;4754132;29;20136;-70
2023/05/09 02:09:55;;;;;;;70.95;42.67;;;;;;;27.63;46.38;98495.75;4747073;30;20062;-71
2023/05/09 02:12:25;;;;;;;65.20;41.88;;;;;;;27.85;46.01;98491.41;4761570;29;20459;-71
2023/05/09 02:14:55;;;;;;;67.70;40.60;;;;;;;28.07;45.05;98508.53;4762203;30;20091;-69
2023/05/09 02:17:24;;;;;;;67.07;39.67;;;;;;;28.20;44.93;98501.44;4761930;29;20117;-68
2023/05/09 02:19:54;;;;;;;69.97;38.97;;;;;;;28.45;44.55;98508.94;4761820;30;20083;-69
2023/05/09 02:22:23;;;;;;;65.93;39.47;;;;;;;28.62;44.32;98515.59;4762164;29;20667;-69
2023/05/09 02:24:52;;;;;;;64.90;38.40;;;;;;;28.76;43.73;98519.03;4762198;30;20060;-68
2023/05/09 02:27:22;;;;;;;72.63;39.30;;;;;;;28.83;43.74;98519.38;4762695;29;20134;-71
2023/05/09 02:29:56;;;;;;;68.75;41.40;;;;;;;28.82;43.25;98515.84;4762413;30;20043;-70
2023/05/09 02:32:29;;;;;;;80.65;43.63;;;;;;;28.86;42.87;98518.72;4761804;30;20052;-69
2023/05/09 02:35:01;;;;;;;77.28;44.05;;;;;;;28.82;43.03;98518.56;4761981;30;20060;-68
2023/05/09 02:37:30;;;;;;;74.18;45.10;;;;;;;28.81;43.20;98525.13;4761668;30;20083;-69
2023/05/09 02:40:00;;;;;;;84.07;49.67;;;;;;;28.84;43.10;98520.97;4762934;29;20428;-68
2023/05/09 02:42:30;;;;;;;96.28;57.88;;;;;;;28.80;41.80;98526.28;4761014;29;20071;-71
2023/05/09 02:45:00;;;;;;;108.90;59.58;;;;;;;28.87;41.61;98525.78;4744290;30;20076;-70
2023/05/09 02:47:29;;;;;;;101.85;58.38;;;;;;;28.71;42.73;98533.63;4754811;30;20063;-72
2023/05/09 02:49:58;;;;;;;96.20;54.13;;;;;;;28.66;41.92;98531.00;4761498;30;20465;-72
2023/05/09 02:52:27;;;;;;;82.53;51.60;;;;;;;28.62;42.29;98535.47;4761443;30;20513;-70
2023/05/09 02:54:57;;;;;;;85.30;49.63;;;;;;;28.49;42.83;98534.44;4761681;30;20063;-68
2023/05/09 02:57:27;;;;;;;84.07;47.60;;;;;;;28.36;43.16;98540.00;4761346;30;20071;-69
2023/05/09 02:59:56;;;;;;;77.65;44.80;;;;;;;28.42;42.29;98542.25;4763057;29;20067;-69
2023/05/09 03:02:25;;;;;;;83.22;42.95;;;;;;;28.39;42.29;98542.09;4761459;29;20060;-70
2023/05/09 03:04:55;;;;;;;72.43;41.63;;;;;;;28.37;43.06;98542.38;4758297;30;20947;-70
2023/05/09 03:07:24;;;;;;;80.68;43.35;;;;;;;28.26;42.83;98545.69;4764267;29;20051;-70
2023/05/09 03:09:54;;;;;;;64.82;40.58;;;;;;;27.90;42.67;98552.00;4764459;30;20769;-72
2023/05/09 03:12:24;;;;;;;67.05;39.10;;;;;;;27.81;43.08;98553.03;4763437;29;20156;-72
2023/05/09 03:14:55;;;;;;;77.43;38.75;;;;;;;27.76;43.61;98547.69;4764890;30;20080;-71
2023/05/09 03:17:26;;;;;;;71.03;36.55;;;;;;;27.75;43.71;98548.84;4764661;29;20072;-70
2023/05/09 03:19:55;;;;;;;68.43;36.47;;;;;;;27.45;43.69;98548.38;4764970;30;20047;-68
2023/05/09 03:22:25;;;;;;;59.58;34.33;;;;;;;27.58;43.35;98561.16;4765583;29;20109;-71
2023/05/09 03:25:00;;;;;;;55.35;33.22;;;;;;;27.56;42.78;98559.88;4764384;30;20062;-72
2023/05/09 03:27:29;;;;;;;65.65;34.28;;;;;;;27.62;42.89;98570.31;4764260;30;20054;-73
2023/05/09 03:29:59;;;;;;;59.35;31.48;;;;;;;27.72;43.62;98565.75;4764656;30;20108;-72
2023/05/09 03:32:30;;;;;;;59.25;31.25;;;;;;;27.53;43.93;98579.53;4763919;30;20489;-71
2023/05/09 03:34:59;;;;;;;48.85;28.67;;;;;;;27.57;43.99;98580.53;4764262;30;20412;-72
2023/05/09 03:37:31;;;;;;;49.10;27.17;;;;;;;27.44;43.86;98575.91;4764297;30;20055;-74
2023/05/09 03:40:02;;;;;;;50.70;27.70;;;;;;;27.60;44.09;98577.19;4762779;29;20064;-68
2023/05/09 03:42:38;;;;;;;52.17;28.15;;;;;;;27.54;44.12;98571.06;4764908;30;20055;-68
2023/05/09 03:45:08;;;;;;;46.00;25.98;;;;;;;27.67;44.93;98580.28;4764802;29;20354;-70
2023/05/09 03:47:37;;;;;;;44.50;25.35;;;;;;;27.57;44.00;98580.53;4749884;30;20497;-69
2023/05/09 03:50:07;;;;;;;36.97;20.95;;;;;;;27.58;43.62;98582.94;4749578;29;20048;-69
2023/05/09 03:52:38;;;;;;;38.90;19.98;;;;;;;27.48;43.81;98583.19;4764646;30;20059;-69
2023/05/09 03:55:09;;;;;;;39.75;18.63;;;;;;;27.53;42.81;98584.97;4749218;29;20079;-70
2023/05/09 03:57:38;;;;;;;31.80;14.40;;;;;;;27.45;42.91;98578.31;4764096;30;20056;-69
2023/05/09 04:00:09;;;;;;;25.65;12.65;;;;;;;27.41;43.11;98582.75;4763305;29;20476;-70
2023/05/09 04:02:41;;;;;;;23.17;11.32;;;;;;;27.18;43.59;98586.50;4765580;29;20129;-68
2023/05/09 04:05:20;;;;;;;21.05;9.90;;;;;;;27.41;44.00;98588.19;4763688;29;20052;-68
2023/05/09 04:07:50;;;;;;;19.27;9.55;;;;;;;27.41;43.66;98588.19;4763946;30;20107;-66
2023/05/09 04:10:19;;;;;;;19.92;9.75;;;;;;;27.56;42.58;98587.91;4763326;29;20125;-69
2023/05/09 04:12:49;;;;;;;17.65;9.60;;;;;;;27.48;43.12;98583.19;4763740;30;20072;-69
2023/05/09 04:15:18;;;;;;;17.48;9.40;;;;;;;27.74;43.66;98585.34;4763055;29;20066;-68
2023/05/09 04:17:49;;;;;;;24.13;11.80;;;;;;;27.87;44.50;98579.03;4763863;30;20071;-69
2023/05/09 04:20:18;;;;;;;22.65;11.68;;;;;;;28.27;43.35;98588.97;4763606;29;20051;-70
2023/05/09 04:22:48;;;;;;;24.88;11.65;;;;;;;28.01;44.17;98583.31;4763755;30;20114;-69
2023/05/09 04:25:20;;;;;;;21.88;11.32;;;;;;;28.03;44.63;98580.28;4763754;29;20078;-67
2023/05/09 04:27:49;;;;;;;18.42;10.90;;;;;;;28.07;43.53;98587.50;4748006;30;20528;-69
2023/05/09 04:30:19;;;;;;;21.88;11.23;;;;;;;28.19;43.06;98588.91;4763033;29;20071;-70
2023/05/09 04:32:49;;;;;;;21.15;11.45;;;;;;;28.30;42.96;98579.38;4763324;30;20060;-70
2023/05/09 04:35:19;;;;;;;21.77;10.27;;;;;;;28.58;42.33;98578.91;4763636;29;20148;-69
2023/05/09 04:37:51;;;;;;;19.73;9.18;;;;;;;28.58;43.85;98575.38;4763900;30;20163;-69
2023/05/09 04:40:21;;;;;;;15.82;8.50;;;;;;;28.76;43.23;98579.81;4762740;29;20100;-70
2023/05/09 04:42:58;;;;;;;17.08;8.18;;;;;;;28.74;43.82;98576.59;4749596;30;20051;-69
2023/05/09 04:45:30;;;;;;;14.67;8.67;;;;;;;28.91;43.10;98575.84;4763087;30;20064;-70
2023/05/09 04:48:01;;;;;;;22.23;9.88;;;;;;;29.00;41.63;98574.78;4748912;30;20052;-70
2023/05/09 04:50:31;;;;;;;25.05;9.98;;;;;;;28.94;42.25;98575.25;4763400;30;20075;-65
2023/05/09 04:53:07;;;;;;;20.90;9.43;;;;;;;29.27;42.37;98579.19;4762965;29;20079;-66
2023/05/09 04:55:36;;;;;;;23.73;9.23;;;;;;;29.11;41.82;98585.41;4763277;30;20147;-65
2023/05/09 04:58:07;;;;;;;39.53;12.07;;;;;;;29.23;42.48;98577.41;4761736;29;20065;-67
2023/05/09 05:00:37;;;;;;;23.80;11.38;;;;;;;29.48;43.84;98586.78;4763012;30;20060;-66
2023/05/09 05:03:08;;;;;;;30.58;13.50;;;;;;;29.56;41.58;98588.75;4762390;29;20404;-64
2023/05/09 05:05:41;;;;;;;26.23;14.70;;;;;;;29.62;40.10;98587.44;4763123;30;20059;-65
2023/05/09 05:08:11;;;;;;;28.83;14.43;;;;;;;29.89;42.57;98598.09;4761815;29;20121;-61
2023/05/09 05:10:41;;;;;;;22.27;13.05;;;;;;;29.87;41.79;98594.88;4760629;30;20063;-63
2023/05/09 05:13:13;;;;;;;21.98;12.32;;;;;;;29.31;41.24;98582.09;4761306;29;20051;-62
2023/05/09 05:15:45;;;;;;;;;;;;;;;29.44;41.04;98589.34;4760651;30;20125;-63
2023/05/09 05:18:15;;;;;;;12.48;7.65;;;;;;;29.57;41.44;98593.88;4761806;29;20016;-63
2023/05/09 05:20:44;;;;;;;13.75;6.88;;;;;;;29.69;40.89;98590.53;4760061;30;20075;-63
2023/05/09 05:23:14;;;;;;;15.82;7.38;;;;;;;29.62;41.54;98599.16;4761977;29;20062;-63
2023/05/09 05:25:44;;;;;;;14.45;7.10;;;;;;;29.64;41.11;98598.88;4761926;30;20440;-62
2023/05/09 05:28:14;;;;;;;13.90;7.38;;;;;;;29.76;40.60;98599.84;4759310;29;20048;-62
2023/05/09 05:30:44;;;;;;;13.80;7.10;;;;;;;29.62;40.04;98603.81;4762932;29;20059;-63
2023/05/09 05:33:13;;;;;;;20.15;7.03;;;;;;;29.98;39.96;98600.81;4762413;29;20060;-63
2023/05/09 05:35:43;;;;;;;15.80;7.40;;;;;;;29.95;40.98;98605.03;4762393;30;20113;-62
2023/05/09 05:38:12;;;;;;;13.43;7.63;;;;;;;29.74;40.92;98604.78;4761993;29;20143;-63
2023/05/09 05:40:44;;;;;;;10.40;5.87;;;;;;;29.89;39.81;98606.28;4762813;30;20064;-63
2023/05/09 05:43:14;;;;;;;10.48;6.25;;;;;;;30.08;40.05;98603.25;4762238;29;20048;-64
2023/05/09 05:45:43;;;;;;;11.60;6.72;;;;;;;30.17;40.87;98612.25;4762213;30;20056;-62
2023/05/09 05:48:16;;;;;;;11.95;6.82;;;;;;;30.44;40.11;98594.69;4762092;29;20132;-61
2023/05/09 05:50:47;;;;;;;12.40;6.25;;;;;;;30.36;39.84;98595.50;4762829;30;20047;-61
2023/05/09 05:53:20;;;;;;;14.18;5.97;;;;;;;30.18;39.40;98594.72;4761900;29;20088;-64
2023/05/09 05:55:51;;;;;;;19.23;6.53;;;;;;;29.79;38.58;98601.91;4762632;30;20056;-62
2023/05/09 05:58:21;;;;;;;17.35;6.55;;;;;;;29.52;38.51;98593.22;4762102;29;20062;-62
2023/05/09 06:00:52;;;;;;;11.65;7.13;;;;;;;29.87;39.55;98594.88;4762658;30;20080;-62
2023/05/09 06:03:21;;;;;;;16.55;7.20;;;;;;;30.02;37.55;98588.13;4763142;29;20052;-63
2023/05/09 06:05:57;;;;;;;13.40;6.95;;;;;;;30.12;39.13;98585.88;4761935;30;20129;-62
2023/05/09 06:08:27;;;;;;;9.70;5.85;;;;;;;30.05;38.07;98584.78;4754818;30;20051;-65
2023/05/09 06:10:59;;;;;;;11.20;6.55;;;;;;;30.24;39.52;98586.03;4761571;30;20047;-64
2023/05/09 06:13:29;;;;;;;12.80;7.13;;;;;;;30.08;39.28;98581.38;4760593;30;20475;-61
2023/05/09 06:16:04;;;;;;;14.98;7.15;;;;;;;30.17;40.11;98582.19;4762647;29;20079;-64
2023/05/09 06:18:49;;;;;;;14.32;6.93;;;;;;;30.31;40.12;98586.34;4762077;30;20056;-63
2023/05/09 06:21:22;;;;;;;;;;;;;;;30.54;38.90;98581.47;4762958;29;20052;-62
2023/05/09 06:23:52;;;;;;;12.05;7.30;;;;;;;30.49;38.50;98575.41;4761619;30;19921;-64
2023/05/09 06:26:36;;;;;;;12.25;5.40;;;;;;;30.22;37.34;98582.03;4762111;30;20060;-63
2023/05/09 06:29:06;;;;;;;19.30;6.07;;;;;;;30.11;36.62;98578.81;4761729;29;20092;-63
2023/05/09 06:31:37;;;;;;;12.60;4.70;;;;;;;30.21;35.12;98569.47;4761620;30;20064;-63
2023/05/09 06:34:07;;;;;;;10.88;3.83;;;;;;;29.96;35.69;98583.97;4762427;29;20056;-62
2023/05/09 06:36:36;;;;;;;10.43;4.10;;;;;;;29.88;37.71;98575.44;4762238;29;20064;-63
2023/05/09 06:39:06;;;;;;;8.07;4.45;;;;;;;29.98;37.11;98577.06;4763493;29;20059;-63
2023/05/09 06:41:35;;;;;;;11.13;4.22;;;;;;;29.85;36.81;98575.25;4764674;29;20528;-63
2023/05/09 06:44:04;;;;;;;7.07;3.80;;;;;;;29.99;36.92;98580.59;4763717;29;20117;-63
2023/05/09 06:46:33;;;;;;;6.43;4.43;;;;;;;29.83;37.93;98572.84;4765414;30;20083;-63
2023/05/09 06:49:04;;;;;;;9.10;3.85;;;;;;;29.97;35.54;98569.16;4763646;29;20056;-64
2023/05/09 06:51:34;;;;;;;8.73;3.53;;;;;;;29.96;37.98;98567.59;4765238;30;20063;-64
2023/05/09 06:54:03;;;;;;;10.25;3.60;;;;;;;29.75;36.00;98565.47;4766117;29;20083;-63
2023/05/09 06:56:33;;;;;;;8.75;3.67;;;;;;;29.57;33.62;98555.66;4766703;29;20059;-63
2023/05/09 06:59:02;;;;;;;9.25;4.03;;;;;;;29.62;33.42;98550.03;4764973;29;20108;-64
2023/05/09 07:01:31;;;;;;;6.28;3.45;;;;;;;29.83;35.02;98551.00;4766667;29;20087;-62
2023/05/09 07:04:01;;;;;;;4.38;2.70;;;;;;;29.78;36.05;98562.09;4766412;29;20067;-63
2023/05/09 07:06:30;;;;;;;7.95;3.15;;;;;;;29.73;36.58;98554.06;4766075;29;20550;-62
2023/05/09 07:08:59;;;;;;;9.80;2.95;;;;;;;29.91;36.78;98559.56;4765512;29;20396;-62
2023/05/09 07:11:34;;;;;;;6.90;3.03;;;;;;;29.97;35.13;98547.31;4765782;29;20055;-61
2023/05/09 07:14:04;;;;;;;9.88;3.42;;;;;;;29.98;34.85;98546.19;4764433;29;20067;-62
2023/05/09 07:16:34;;;;;;;9.00;3.08;;;;;;;29.83;34.72;98558.38;4764912;30;20080;-62
2023/05/09 07:19:04;;;;;;;5.32;2.55;;;;;;;29.73;34.00;98543.16;4762981;29;20150;-61
2023/05/09 07:21:34;;;;;;;5.82;2.33;;;;;;;29.78;34.00;98539.44;4765202;30;20396;-61
2023/05/09 07:24:05;;;;;;;5.93;2.63;;;;;;;29.90;34.27;98531.44;4765705;29;20611;-61
2023/05/09 07:26:37;;;;;;;7.38;2.55;;;;;;;29.99;34.67;98543.16;4764820;29;20055;-61
2023/05/09 07:29:06;;;;;;;6.53;2.35;;;;;;;29.84;35.16;98535.41;4761943;29;20063;-61
2023/05/09 07:31:36;;;;;;;8.70;2.50;;;;;;;29.71;35.09;98530.94;4765564;29;20048;-60
2023/05/09 07:34:05;;;;;;;5.10;2.90;;;;;;;29.78;34.49;98523.88;4753110;29;20059;-60
2023/05/09 07:36:36;;;;;;;6.63;2.45;;;;;;;29.87;33.33;98519.22;4748867;30;20418;-62
2023/05/09 07:39:10;;;;;;;6.07;2.10;;;;;;;29.81;33.77;98528.69;4763808;29;20058;-61
2023/05/09 07:41:39;;;;;;;6.70;2.30;;;;;;;29.51;33.23;98534.31;4765543;29;20109;-60
2023/05/09 07:44:09;;;;;;;3.50;1.83;;;;;;;29.72;32.56;98529.81;4764928;29;20083;-61
2023/05/09 07:46:40;;;;;;;6.57;2.20;;;;;;;29.56;30.69;98521.31;4763899;30;20090;-61
2023/05/09 07:49:10;;;;;;;11.40;3.53;;;;;;;29.58;29.43;98523.69;4763873;29;20052;-60
2023/05/09 07:51:40;;;;;;;7.43;2.03;;;;;;;29.59;32.66;98526.13;4763501;29;20140;-61
2023/05/09 07:54:09;;;;;;;4.45;1.92;;;;;;;29.65;31.14;98521.31;4763820;29;20135;-61
2023/05/09 07:56:39;;;;;;;7.25;2.00;;;;;;;29.94;31.09;98520.66;4763307;30;20473;-62
2023/05/09 07:59:09;;;;;;;5.75;1.70;;;;;;;29.94;31.83;98513.28;4763132;29;20052;-62
2023/05/09 08:01:38;;;;;;;5.68;1.98;;;;;;;29.77;31.33;98514.06;4764332;29;20431;-61
2023/05/09 08:04:08;;;;;;;5.80;1.95;;;;;;;29.56;29.86;98510.38;4763706;29;20067;-61
2023/05/09 08:06:38;;;;;;;6.63;1.90;;;;;;;29.60;27.99;98503.16;4764279;29;20091;-61
2023/05/09 08:09:07;;;;;;;7.50;2.13;;;;;;;29.67;31.28;98508.13;4763524;29;20148;-61
2023/05/09 08:11:36;;;;;;;12.32;2.10;;;;;;;29.61;32.69;98493.81;4763995;29;20062;-61
2023/05/09 08:14:06;;;;;;;5.68;1.98;;;;;;;29.52;30.16;98493.03;4764568;29;20158;-61
2023/05/09 08:16:36;;;;;;;10.50;2.50;;;;;;;29.50;31.07;98500.75;4763606;30;20052;-60
2023/05/09 08:19:06;;;;;;;10.75;2.38;;;;;;;29.38;31.45;98493.22;4762718;29;20481;-60
2023/05/09 08:21:35;;;;;;;6.45;2.03;;;;;;;29.39;31.14;98493.97;4764565;29;20051;-61
2023/05/09 08:24:06;;;;;;;7.88;2.20;;;;;;;29.29;32.13;98488.84;4747669;29;20422;-61
2023/05/09 08:26:36;;;;;;;4.75;1.52;;;;;;;29.22;30.70;98496.66;4763697;30;20066;-61
2023/05/09 08:29:05;;;;;;;6.93;2.42;;;;;;;29.22;31.03;98491.22;4756692;29;20142;-61
2023/05/09 08:31:34;;;;;;;9.45;2.10;;;;;;;29.10;31.22;98488.31;4764033;29;20098;-61
2023/05/09 08:34:03;;;;;;;6.90;1.88;;;;;;;29.10;30.33;98480.94;4763039;29;20195;-61
2023/05/09 08:36:33;;;;;;;6.55;1.95;;;;;;;29.14;31.17;98473.72;4747165;30;20141;-61
2023/05/09 08:39:02;;;;;;;5.85;2.17;;;;;;;29.19;29.21;98472.75;4763540;29;20048;-60
2023/05/09 08:41:34;;;;;;;4.78;2.20;;;;;;;29.17;29.92;98472.28;4761419;29;20135;-61
2023/05/09 08:44:05;;;;;;;3.88;2.00;;;;;;;29.17;31.79;98469.53;4748638;29;20483;-63
2023/05/09 08:46:39;;;;;;;5.50;1.98;;;;;;;29.15;30.98;98472.59;4764162;29;20059;-61
2023/05/09 08:49:10;;;;;;;6.82;2.30;;;;;;;29.11;30.77;98473.56;4760179;29;20055;-62
2023/05/09 08:51:40;;;;;;;5.63;2.90;;;;;;;29.07;31.86;98464.41;4763131;30;20741;-63
2023/05/09 08:54:11;;;;;;;6.88;2.55;;;;;;;29.04;31.76;98465.84;4755601;29;20075;-61
2023/05/09 08:56:41;;;;;;;4.60;2.35;;;;;;;29.06;30.56;98458.16;4764102;29;20056;-60
2023/05/09 08:59:10;;;;;;;6.63;3.10;;;;;;;28.93;30.79;98453.66;4763498;29;20083;-60
2023/05/09 09:01:40;;;;;;;5.95;2.80;;;;;;;28.90;31.07;98454.28;4763341;29;20553;-59
2023/05/09 09:04:12;;;;;;;10.00;3.40;;;;;;;28.95;31.01;98451.38;4761746;29;20540;-60
2023/05/09 09:06:42;;;;;;;6.90;3.00;;;;;;;29.00;31.41;98449.31;4758311;30;20054;-60
2023/05/09 09:09:12;;;;;;;8.20;2.97;;;;;;;29.02;32.70;98447.09;4761973;29;20076;-61
2023/05/09 09:11:43;;;;;;;7.88;4.15;;;;;;;28.91;33.65;98450.41;4762664;29;20480;-59
2023/05/09 09:14:19;;;;;;;9.18;3.55;;;;;;;28.92;31.96;98446.59;4763299;29;20154;-60
2023/05/09 09:16:51;;;;;;;5.25;3.85;;;;;;;28.94;31.38;98447.06;4759537;29;20075;-59
2023/05/09 09:19:23;;;;;;;13.10;4.20;;;;;;;28.79;31.31;98442.06;4756008;29;20066;-60
2023/05/09 09:21:56;;;;;;;9.35;3.95;;;;;;;28.73;32.41;98437.88;4763980;29;20055;-60
2023/05/09 09:24:25;;;;;;;14.53;3.83;;;;;;;28.86;31.52;98431.47;4763591;29;20146;-60
2023/05/09 09:26:55;;;;;;;10.90;4.38;;;;;;;28.87;32.75;98433.09;4763700;29;20136;-60
2023/05/09 09:29:27;;;;;;;10.88;3.60;;;;;;;28.91;32.52;98434.88;4762964;29;20120;-60
2023/05/09 09:32:00;;;;;;;9.88;3.47;;;;;;;28.97;33.11;98430.06;4761671;30;20056;-60
2023/05/09 09:34:30;;;;;;;9.40;4.05;;;;;;;28.94;33.23;98431.50;4762910;30;20056;-62
2023/05/09 09:36:59;;;;;;;8.23;3.22;;;;;;;28.87;32.19;98430.38;4763825;29;20070;-60
2023/05/09 09:39:28;;;;;;;8.82;2.78;;;;;;;28.88;33.96;98419.16;4763696;29;20724;-62
2023/05/09 09:42:10;;;;;;;6.85;3.17;;;;;;;28.97;32.80;98424.63;4763828;29;20051;-61
2023/05/09 09:44:40;;;;;;;8.13;3.00;;;;;;;28.91;33.98;98417.69;4763463;29;20060;-61
2023/05/09 09:47:10;;;;;;;5.78;2.97;;;;;;;28.83;33.28;98408.41;4745297;29;20059;-70
2023/05/09 09:49:46;;;;;;;7.70;2.88;;;;;;;28.90;32.05;98413.38;4762394;29;20758;-63
2023/05/09 09:52:26;;;;;;;4.07;2.65;;;;;;;28.85;32.61;98408.09;4759423;29;20382;-63
2023/05/09 09:54:56;;;;;;;5.20;2.58;;;;;;;28.90;33.12;98402.47;4762371;30;20392;-64
2023/05/09 09:57:38;;;;;;;5.45;2.42;;;;;;;28.98;34.27;98407.94;4762022;29;20109;-66
2023/05/09 10:00:08;;;;;;;8.27;2.83;;;;;;;28.89;33.64;98398.94;4762439;29;20059;-64
2023/05/09 10:02:48;;;;;;;8.95;2.88;;;;;;;28.85;33.58;98398.00;4762078;30;21003;-66
2023/05/09 10:05:26;;;;;;;7.30;2.90;;;;;;;28.82;33.49;98411.44;4761713;29;20083;-66
2023/05/09 10:08:00;;;;;;;9.27;2.67;;;;;;;28.85;32.78;98402.63;4763201;29;20059;-66
2023/05/09 10:10:33;;;;;;;5.50;2.47;;;;;;;28.90;32.55;98389.63;4761950;29;20056;-61
2023/05/09 10:13:21;;;;;;;6.55;2.00;;;;;;;28.88;32.18;98383.72;4761880;29;20520;-64
2023/05/09 10:15:51;;;;;;;7.07;2.53;;;;;;;28.83;33.68;98391.22;4762795;29;20134;-64
2023/05/09 10:18:26;;;;;;;7.30;3.03;;;;;;;28.89;32.30;98385.31;4745044;30;20064;-64
2023/05/09 10:21:02;;;;;;;4.90;2.47;;;;;;;28.85;33.36;98383.56;4762909;29;20072;-60
2023/05/09 10:23:42;;;;;;;5.68;2.70;;;;;;;28.70;33.84;98387.53;4763014;29;20124;-62
2023/05/09 10:26:16;;;;;;;8.82;3.03;;;;;;;28.74;32.97;98384.97;4762406;29;20063;-61
2023/05/09 10:28:48;;;;;;;5.90;2.60;;;;;;;28.79;32.37;98382.09;4762589;29;20059;-63
2023/05/09 10:31:31;;;;;;;8.23;3.10;;;;;;;28.80;32.97;98376.31;4762258;29;20091;-64
2023/05/09 10:34:09;;;;;;;8.13;2.47;;;;;;;28.75;31.71;98370.22;4763100;29;20070;-62
2023/05/09 10:36:38;;;;;;;4.85;2.38;;;;;;;28.90;32.25;98372.50;4762681;29;20583;-63
2023/05/09 10:39:09;;;;;;;5.45;3.35;;;;;;;28.89;33.54;98371.69;4762464;29;20047;-63
2023/05/09 10:41:38;;;;;;;6.20;2.50;;;;;;;28.89;32.09;98376.34;4762481;29;20059;-62
2023/05/09 10:44:08;;;;;;;5.82;2.75;;;;;;;28.83;33.53;98366.69;4761409;29;20060;-64
2023/05/09 10:46:38;;;;;;;8.73;2.63;;;;;;;28.79;33.39;98369.25;4762770;29;20059;-64
2023/05/09 10:49:08;;;;;;;3.88;2.60;;;;;;;28.75;33.37;98364.75;4762942;29;20055;-63
2023/05/09 10:51:38;;;;;;;6.10;2.60;;;;;;;28.83;33.51;98366.69;4763130;29;20529;-64
2023/05/09 10:54:24;;;;;;;5.38;2.72;;;;;;;28.89;33.65;98360.78;4757759;29;20056;-64
2023/05/09 10:56:57;;;;;;;7.32;2.85;;;;;;;28.88;33.09;98361.09;4762538;29;20051;-63
2023/05/09 10:59:52;;;;;;;5.82;2.90;;;;;;;28.77;33.00;98360.59;4762443;29;20485;-62
2023/05/09 11:02:28;;;;;;;5.72;2.65;;;;;;;28.86;32.54;98357.88;4761292;29;20154;-61
2023/05/09 11:05:16;;;;;;;6.65;3.03;;;;;;;28.79;33.46;98354.81;4752169;29;20739;-66
2023/05/09 11:07:47;;;;;;;8.80;2.85;;;;;;;28.84;34.29;98357.41;4750564;29;20066;-63
2023/05/09 11:10:17;;;;;;;7.80;3.10;;;;;;;28.87;34.24;98354.03;4744715;30;20089;-61
2023/05/09 11:12:59;;;;;;;4.70;2.47;;;;;;;28.83;34.46;98353.88;4746589;30;20392;-64
2023/05/09 11:15:29;;;;;;;9.00;3.15;;;;;;;28.79;34.06;98352.91;4762220;29;20114;-65
2023/05/09 11:18:11;;;;;;;8.60;2.70;;;;;;;28.78;35.04;98351.28;4762217;29;20058;-65
2023/05/09 11:20:45;;;;;;;4.90;2.80;;;;;;;28.66;34.66;98350.28;4761763;29;20066;-64
2023/05/09 11:23:17;;;;;;;7.57;2.90;;;;;;;28.52;34.29;98353.16;4752093;29;20426;-62
2023/05/09 11:25:48;;;;;;;11.45;3.15;;;;;;;28.48;34.03;98353.00;4759815;29;20060;-65
2023/05/09 11:28:32;;;;;;;8.38;2.83;;;;;;;28.32;33.99;98338.22;4750271;30;20091;-64
2023/05/09 11:31:11;;;;;;;11.98;2.75;;;;;;;28.27;34.51;98341.09;4765004;29;20055;-63
2023/05/09 11:33:42;;;;;;;7.70;3.30;;;;;;;28.24;34.46;98346.34;4765907;29;20117;-60
2023/05/09 11:36:19;;;;;;;11.10;2.90;;;;;;;28.22;34.74;98341.25;4764216;29;20715;-62
2023/05/09 11:39:06;;;;;;;7.88;2.70;;;;;;;28.26;33.71;98336.75;4763911;29;20056;-64
2023/05/09 11:41:43;;;;;;;12.30;3.58;;;;;;;28.36;34.27;98346.56;4764245;29;20063;-61
2023/05/09 11:44:15;;;;;;;11.20;4.32;;;;;;;28.32;34.82;98340.94;4764643;29;20079;-60
2023/05/09 11:46:47;;;;;;;10.60;3.47;;;;;;;28.35;34.53;98345.75;4764785;29;20074;-63